TimeEST,TemperatureF,Dew PointF,Humidity,Sea Level PressureIn,VisibilityMPH,Wind Direction,Wind SpeedMPH,Gust SpeedMPH,PrecipitationIn,Events,Conditions,WindDirDegrees,DateUTC
12:15 AM,30.0,28.9,96,30.08,4.0,ESE,3.5,-,N/A,,Clear,120,2012-12-20 05:15:00
12:34 AM,27.9,26.6,95,30.08,4.0,SE,3.5,-,N/A,,Clear,130,2012-12-20 05:34:00
12:55 AM,30.4,29.3,96,30.07,5.0,SE,3.5,-,N/A,,Clear,130,2012-12-20 05:55:00
1:15 AM,30.9,29.8,96,30.06,4.0,ESE,4.6,-,N/A,,Clear,110,2012-12-20 06:15:00
1:34 AM,31.5,30.2,95,30.05,4.0,East,3.5,-,N/A,,Clear,80,2012-12-20 06:34:00
2:15 AM,32.0,30.7,95,30.02,4.0,East,3.5,-,N/A,,Overcast,80,2012-12-20 07:15:00
2:34 AM,32.0,30.9,96,30.02,4.0,East,5.8,-,N/A,,Overcast,90,2012-12-20 07:34:00
2:55 AM,32.9,31.6,95,30.02,5.0,East,5.8,-,N/A,,Overcast,80,2012-12-20 07:55:00
3:14 AM,33.6,32.0,94,30.00,5.0,East,6.9,-,N/A,,Overcast,100,2012-12-20 08:14:00
3:34 AM,34.0,32.0,92,30.00,5.0,East,6.9,-,N/A,,Overcast,100,2012-12-20 08:34:00
3:54 AM,34.3,32.0,91,29.98,5.0,East,9.2,-,N/A,,Overcast,100,2012-12-20 08:54:00
4:14 AM,34.5,32.0,90,29.97,5.0,ESE,9.2,-,N/A,,Overcast,110,2012-12-20 09:14:00
4:35 AM,34.5,32.0,90,29.95,5.0,ESE,6.9,-,N/A,,Overcast,120,2012-12-20 09:35:00
4:54 AM,34.3,32.0,91,29.93,3.0,ESE,9.2,-,N/A,Snow,Light Snow,110,2012-12-20 09:54:00
5:14 AM,34.5,32.4,92,29.92,4.0,East,8.1,-,N/A,Snow,Light Snow,100,2012-12-20 10:14:00
5:35 AM,34.5,32.7,93,29.92,3.0,East,8.1,-,N/A,Snow,Light Snow,100,2012-12-20 10:35:00
5:54 AM,34.2,32.7,94,29.92,2.5,East,6.9,-,N/A,Snow,Light Snow,90,2012-12-20 10:54:00
6:14 AM,34.3,32.9,94,29.91,3.0,East,5.8,-,N/A,Snow,Light Snow,90,2012-12-20 11:14:00
6:35 AM,34.7,33.4,95,29.90,3.0,East,10.4,-,N/A,,Overcast,100,2012-12-20 11:35:00
6:54 AM,35.2,34.0,95,29.87,4.0,East,9.2,16.1,N/A,,Overcast,100,2012-12-20 11:54:00
7:15 AM,35.6,34.3,95,29.88,4.0,ESE,10.4,-,N/A,,Overcast,110,2012-12-20 12:15:00
7:35 AM,36.0,34.5,94,29.86,4.0,East,11.5,-,N/A,,Overcast,100,2012-12-20 12:35:00
7:54 AM,36.5,34.7,93,29.85,4.0,ESE,9.2,-,N/A,,Overcast,110,2012-12-20 12:54:00
8:15 AM,36.7,34.9,93,29.81,4.0,East,11.5,20.7,N/A,,Drizzle,80,2012-12-20 13:15:00
8:35 AM,36.7,34.9,93,29.77,4.0,East,15.0,23.0,N/A,Rain,Rain,80,2012-12-20 13:35:00
8:54 AM,36.5,34.7,93,29.72,3.0,East,19.6,25.3,N/A,Rain,Light Rain,80,2012-12-20 13:54:00
9:15 AM,36.5,34.7,93,29.72,4.0,East,11.5,26.5,N/A,Rain,Light Rain,90,2012-12-20 14:15:00
9:34 AM,36.9,34.7,92,29.72,5.0,East,13.8,25.3,N/A,,Overcast,90,2012-12-20 14:34:00
9:54 AM,37.2,34.5,90,29.69,5.0,East,18.4,29.9,N/A,,Overcast,90,2012-12-20 14:54:00
10:15 AM,37.6,34.2,87,29.67,5.0,East,21.9,32.2,N/A,,Overcast,90,2012-12-20 15:15:00
10:34 AM,37.9,34.0,86,29.64,5.0,East,19.6,28.8,N/A,,Overcast,100,2012-12-20 15:34:00
10:54 AM,38.3,33.3,82,29.63,7.0,ESE,21.9,31.1,N/A,,Overcast,110,2012-12-20 15:54:00
11:15 AM,38.7,33.1,80,29.59,7.0,East,19.6,32.2,N/A,,Overcast,90,2012-12-20 16:15:00
11:34 AM,38.8,33.4,81,29.58,7.0,East,15.0,26.5,N/A,,Drizzle,100,2012-12-20 16:34:00
11:54 AM,38.3,33.8,84,29.59,4.0,ESE,16.1,26.5,N/A,Rain,Rain,110,2012-12-20 16:54:00
12:14 PM,38.3,34.5,86,29.57,5.0,ESE,13.8,25.3,N/A,Rain,Light Rain,120,2012-12-20 17:14:00
12:34 PM,37.9,34.0,86,29.56,3.0,ESE,15.0,21.9,N/A,Rain,Light Rain,120,2012-12-20 17:34:00
12:55 PM,37.4,34.3,89,29.52,2.5,ESE,13.8,21.9,N/A,,Overcast,110,2012-12-20 17:55:00
1:14 PM,37.6,34.9,90,29.47,2.0,East,17.3,23.0,N/A,Snow,Light Snow,100,2012-12-20 18:14:00
1:34 PM,37.8,35.2,91,29.44,2.5,ESE,17.3,29.9,N/A,Rain,Light Rain,110,2012-12-20 18:34:00
1:55 PM,38.1,35.6,91,29.40,3.0,ESE,19.6,27.6,N/A,Rain,Light Rain,110,2012-12-20 18:55:00
2:14 PM,38.8,36.5,91,29.38,4.0,ESE,18.4,32.2,N/A,Rain,Light Rain,120,2012-12-20 19:14:00
2:35 PM,39.4,37.0,91,29.34,4.0,East,24.2,39.1,N/A,Rain,Light Rain,100,2012-12-20 19:35:00
2:55 PM,39.7,37.4,91,29.30,7.0,ESE,24.2,32.2,N/A,Rain,Light Rain,120,2012-12-20 19:55:00
3:14 PM,40.3,37.8,91,29.26,10.0,ESE,21.9,35.7,N/A,,Overcast,110,2012-12-20 20:14:00
3:35 PM,40.8,38.3,91,29.28,10.0,SE,17.3,33.4,N/A,Rain,Light Rain,130,2012-12-20 20:35:00
3:54 PM,41.2,38.5,90,29.28,10.0,SE,17.3,34.5,N/A,,Overcast,130,2012-12-20 20:54:00
4:14 PM,41.4,38.7,90,29.26,10.0,SE,18.4,28.8,N/A,,Overcast,130,2012-12-20 21:14:00
4:35 PM,41.9,39.2,90,29.27,10.0,SE,19.6,27.6,N/A,,Overcast,140,2012-12-20 21:35:00
4:54 PM,41.9,39.2,90,29.27,10.0,SE,18.4,29.9,N/A,,Overcast,140,2012-12-20 21:54:00
5:14 PM,42.1,39.4,90,29.25,10.0,SE,18.4,29.9,N/A,,Light Drizzle,130,2012-12-20 22:14:00
5:35 PM,41.9,39.7,92,29.22,7.0,ESE,13.8,28.8,N/A,Rain,Light Rain,120,2012-12-20 22:35:00
5:54 PM,42.3,40.1,92,29.22,4.0,ESE,17.3,24.2,N/A,Rain,Rain,120,2012-12-20 22:54:00
6:15 PM,42.3,40.3,93,29.21,5.0,ESE,13.8,20.7,N/A,Rain,Light Rain,120,2012-12-20 23:15:00
6:35 PM,42.8,40.8,93,29.20,5.0,SE,15.0,27.6,N/A,Rain,Rain,130,2012-12-20 23:35:00
6:54 PM,42.8,41.0,93,29.19,5.0,ESE,13.8,20.7,N/A,Rain,Light Rain,120,2012-12-20 23:54:00
7:15 PM,42.8,41.0,93,29.18,7.0,ESE,13.8,18.4,N/A,Rain,Light Rain,110,2012-12-21 00:15:00
7:34 PM,43.0,41.4,94,29.17,7.0,ESE,13.8,19.6,N/A,Rain,Light Rain,120,2012-12-21 00:34:00
7:55 PM,43.3,41.9,95,29.15,10.0,ESE,11.5,17.3,N/A,,Overcast,120,2012-12-21 00:55:00
8:15 PM,43.5,41.9,94,29.14,5.0,ESE,12.7,18.4,N/A,Rain,Light Rain,110,2012-12-21 01:15:00
8:34 PM,43.7,42.1,94,29.13,5.0,ESE,11.5,18.4,N/A,Rain,Light Rain,120,2012-12-21 01:34:00
8:55 PM,43.9,42.4,95,29.12,5.0,SE,10.4,16.1,N/A,Rain,Light Rain,130,2012-12-21 01:55:00
9:15 PM,44.1,42.8,95,29.12,10.0,SSE,10.4,-,N/A,Rain,Light Rain,160,2012-12-21 02:15:00
9:34 PM,44.6,43.2,95,29.13,10.0,SSW,13.8,18.4,N/A,Rain,Rain,210,2012-12-21 02:34:00
9:55 PM,44.2,41.9,91,29.14,10.0,SSW,16.1,23.0,N/A,,Light Drizzle,210,2012-12-21 02:55:00
10:14 PM,43.5,41.0,91,29.15,7.0,SSW,12.7,-,N/A,,Drizzle,210,2012-12-21 03:14:00
10:35 PM,43.0,40.6,91,29.16,10.0,SSW,15.0,18.4,N/A,Rain,Light Rain,200,2012-12-21 03:35:00
10:55 PM,42.4,39.7,90,29.15,10.0,SW,10.4,-,N/A,Rain,Light Rain,230,2012-12-21 03:55:00
11:14 PM,41.9,39.6,91,29.16,7.0,SSW,18.4,24.2,N/A,Rain,Rain,210,2012-12-21 04:14:00
11:35 PM,40.1,36.7,88,29.16,10.0,SSW,8.1,-,N/A,,Light Drizzle,210,2012-12-21 04:35:00
11:55 PM,40.1,37.4,90,29.16,10.0,South,10.4,-,N/A,,Overcast,190,2012-12-21 04:55:00